createdAt,value
2024-04-12T00:01:00.176Z,2.60
2024-04-12T00:03:28.112Z,3.00
2024-04-12T00:05:56.228Z,3.67
2024-04-12T00:08:24.262Z,3.55
2024-04-12T00:10:53.504Z,3.38
2024-04-12T00:13:21.429Z,2.95
2024-04-12T00:15:49.194Z,2.60
2024-04-12T00:18:17.140Z,2.58
2024-04-12T00:20:44.605Z,3.17
2024-04-12T00:23:13.774Z,2.80
2024-04-12T00:25:40.958Z,3.20
2024-04-12T00:28:08.280Z,3.75
2024-04-12T00:30:39.170Z,3.00
2024-04-12T00:33:11.027Z,3.28
2024-04-12T00:35:39.182Z,3.80
2024-04-12T00:38:13.839Z,4.18
2024-04-12T00:40:46.991Z,3.67
2024-04-12T00:43:19.049Z,3.63
2024-04-12T00:45:49.693Z,3.45
2024-04-12T00:48:17.516Z,3.07
2024-04-12T00:50:45.386Z,3.40
2024-04-12T00:53:15.539Z,3.35
2024-04-12T00:55:45.310Z,3.60
2024-04-12T00:58:12.754Z,3.80
2024-04-12T01:00:39.910Z,3.85
2024-04-12T01:03:07.479Z,3.90
2024-04-12T01:05:34.835Z,3.92
2024-04-12T01:08:02.408Z,3.47
2024-04-12T01:10:35.786Z,3.85
2024-04-12T01:13:04.373Z,3.80
2024-04-12T01:15:34.475Z,3.70
2024-04-12T01:18:06.504Z,4.20
2024-04-12T01:20:36.903Z,4.13
2024-04-12T01:23:06.207Z,3.60
2024-04-12T01:25:35.075Z,3.35
2024-04-12T01:28:05.957Z,3.23
2024-04-12T01:30:35.990Z,2.70
2024-04-12T01:33:09.956Z,2.90
2024-04-12T01:35:37.663Z,3.08
2024-04-12T01:38:19.256Z,3.20
2024-04-12T01:40:48.355Z,3.78
2024-04-12T01:43:19.430Z,3.20
2024-04-12T01:45:46.849Z,3.20
2024-04-12T01:48:15.086Z,3.22
2024-04-12T01:50:42.575Z,3.33
2024-04-12T01:53:11.045Z,3.25
2024-04-12T01:55:41.362Z,3.10
2024-04-12T01:58:08.752Z,3.50
2024-04-12T02:00:39.866Z,3.90
2024-04-12T02:03:14.192Z,4.30
2024-04-12T02:05:41.693Z,3.80
2024-04-12T02:08:09.851Z,3.60
2024-04-12T02:10:43.088Z,3.80
2024-04-12T02:13:18.542Z,3.20
2024-04-12T02:15:47.112Z,3.20
2024-04-12T02:18:15.930Z,2.95
2024-04-12T02:20:46.571Z,2.67
2024-04-12T02:23:15.344Z,3.15
2024-04-12T02:25:43.294Z,3.00
2024-04-12T02:28:13.015Z,3.47
2024-04-12T02:30:44.189Z,4.32
2024-04-12T02:33:12.370Z,4.35
2024-04-12T02:35:39.937Z,4.03
2024-04-12T02:38:07.234Z,3.55
2024-04-12T02:40:37.056Z,4.00
2024-04-12T02:43:05.955Z,3.72
2024-04-12T02:45:35.034Z,3.10
2024-04-12T02:48:04.213Z,3.90
2024-04-12T02:50:32.043Z,3.33
2024-04-12T02:52:59.448Z,3.65
2024-04-12T02:55:32.381Z,3.60
2024-04-12T02:57:59.995Z,3.20
2024-04-12T03:00:31.175Z,3.47
2024-04-12T03:03:00.885Z,3.10
2024-04-12T03:05:28.240Z,3.50
2024-04-12T03:07:56.899Z,3.30
2024-04-12T03:10:28.831Z,3.60
2024-04-12T03:12:56.386Z,3.78
2024-04-12T03:15:26.242Z,4.60
2024-04-12T03:17:53.644Z,4.10
2024-04-12T03:20:21.512Z,4.50
2024-04-12T03:22:49.066Z,4.40
2024-04-12T03:25:16.554Z,4.70
2024-04-12T03:27:47.032Z,4.55
2024-04-12T03:30:19.317Z,4.63
2024-04-12T03:32:46.981Z,3.55
2024-04-12T03:35:20.772Z,3.78
2024-04-12T03:38:08.315Z,3.40
2024-04-12T03:40:35.820Z,3.13
2024-04-12T03:43:04.242Z,3.50
2024-04-12T03:45:32.165Z,4.07
2024-04-12T03:47:59.920Z,4.47
2024-04-12T03:50:31.628Z,4.28
2024-04-12T03:53:15.907Z,4.75
2024-04-12T03:55:47.143Z,4.23
2024-04-12T03:58:18.519Z,4.57
2024-04-12T04:00:47.728Z,4.07
2024-04-12T04:03:32.560Z,3.92
2024-04-12T04:06:07.181Z,4.60
2024-04-12T04:08:53.510Z,4.50
2024-04-12T04:11:20.825Z,4.97
2024-04-12T04:13:48.557Z,4.30
2024-04-12T04:16:19.623Z,4.40
2024-04-12T04:18:51.018Z,3.95
2024-04-12T04:21:18.680Z,4.33
2024-04-12T04:23:48.553Z,4.60
2024-04-12T04:26:18.288Z,4.63
2024-04-12T04:28:45.676Z,4.38
2024-04-12T04:31:14.493Z,4.05
2024-04-12T04:33:43.107Z,4.80
2024-04-12T04:36:10.631Z,5.35
2024-04-12T04:38:38.301Z,4.50
2024-04-12T04:41:07.987Z,4.50
2024-04-12T04:43:36.639Z,4.55
2024-04-12T04:46:24.348Z,4.67
2024-04-12T04:48:51.764Z,4.35
2024-04-12T04:51:19.332Z,4.73
2024-04-12T04:53:47.451Z,4.82
2024-04-12T04:56:25.481Z,5.10
2024-04-12T04:58:53.593Z,4.10
2024-04-12T05:01:21.242Z,4.28
2024-04-12T05:03:50.924Z,4.35
2024-04-12T05:06:25.891Z,4.72
2024-04-12T05:08:54.133Z,4.43
2024-04-12T05:11:24.390Z,3.57
2024-04-12T05:13:57.263Z,3.50
2024-04-12T05:16:24.792Z,3.53
2024-04-12T05:18:54.717Z,3.50
2024-04-12T05:21:22.418Z,3.70
2024-04-12T05:23:53.077Z,3.90
2024-04-12T05:26:22.317Z,3.70
2024-04-12T05:28:49.921Z,3.40
2024-04-12T05:31:21.044Z,3.10
2024-04-12T05:33:51.012Z,3.37
2024-04-12T05:36:18.503Z,3.92
2024-04-12T05:38:49.127Z,3.55
2024-04-12T05:41:16.955Z,3.40
2024-04-12T05:43:44.353Z,4.20
2024-04-12T05:46:13.012Z,3.75
2024-04-12T05:48:42.911Z,4.80
2024-04-12T05:51:12.275Z,4.57
2024-04-12T05:53:40.465Z,4.00
2024-04-12T05:56:26.385Z,3.75
2024-04-12T05:58:54.082Z,3.70
2024-04-12T06:01:21.682Z,3.78
2024-04-12T06:03:54.081Z,3.50
2024-04-12T06:06:23.802Z,3.60
2024-04-12T06:08:53.817Z,4.15
2024-04-12T06:11:22.865Z,4.00
2024-04-12T06:13:55.080Z,3.92
2024-04-12T06:16:22.710Z,4.78
2024-04-12T06:18:52.492Z,4.43
2024-04-12T06:21:20.070Z,4.47
2024-04-12T06:23:50.792Z,4.22
2024-04-12T06:26:20.803Z,4.00
2024-04-12T06:28:48.963Z,4.00
2024-04-12T06:31:21.792Z,3.83
2024-04-12T06:33:52.350Z,3.58
2024-04-12T06:36:19.842Z,3.53
2024-04-12T06:38:47.222Z,3.13
2024-04-12T06:41:16.437Z,2.95
2024-04-12T06:43:44.275Z,3.00
2024-04-12T06:46:13.222Z,3.25
2024-04-12T06:48:41.726Z,3.60
2024-04-12T06:51:09.990Z,3.55
2024-04-12T06:53:37.590Z,3.28
2024-04-12T06:56:07.731Z,3.15
2024-04-12T06:58:35.287Z,3.67
2024-04-12T07:01:07.352Z,2.97
2024-04-12T07:03:36.170Z,3.22
2024-04-12T07:06:04.679Z,3.08
2024-04-12T07:08:32.242Z,4.00
2024-04-12T07:11:00.431Z,3.17
2024-04-12T07:13:28.681Z,3.20
2024-04-12T07:15:57.614Z,3.13
2024-04-12T07:18:27.802Z,2.85
2024-04-12T07:21:15.193Z,2.70
2024-04-12T07:23:47.596Z,2.67
2024-04-12T07:26:25.528Z,2.50
2024-04-12T07:29:01.136Z,3.50
2024-04-12T07:31:31.691Z,3.10
2024-04-12T07:34:00.656Z,3.65
2024-04-12T07:36:35.940Z,2.90
2024-04-12T07:39:09.317Z,2.80
2024-04-12T07:41:45.236Z,3.55
2024-04-12T07:44:16.618Z,3.15
2024-04-12T07:46:50.984Z,2.97
2024-04-12T07:49:21.549Z,3.00
2024-04-12T07:51:52.021Z,3.22
2024-04-12T07:54:19.404Z,3.72
2024-04-12T07:56:47.482Z,3.53
2024-04-12T07:59:15.425Z,3.20
2024-04-12T08:01:47.432Z,3.20
2024-04-12T08:04:37.671Z,3.22
2024-04-12T08:07:15.266Z,3.00
2024-04-12T08:09:47.646Z,3.08
2024-04-12T08:12:16.710Z,3.40
2024-04-12T08:15:04.598Z,3.20
2024-04-12T08:17:42.593Z,3.10
2024-04-12T08:20:29.282Z,3.47
2024-04-12T08:22:57.566Z,3.53
2024-04-12T08:25:28.647Z,4.33
2024-04-12T08:27:56.426Z,3.75
2024-04-12T08:30:26.315Z,3.95
2024-04-12T08:32:57.047Z,6.35
2024-04-12T08:35:26.492Z,4.30
2024-04-12T08:37:55.608Z,5.10
2024-04-12T08:40:26.927Z,4.47
2024-04-12T08:42:57.034Z,7.20
2024-04-12T08:45:31.496Z,4.60
2024-04-12T08:48:06.823Z,3.80
2024-04-12T08:50:36.614Z,4.22
2024-04-12T08:53:13.166Z,4.80
2024-04-12T08:55:45.998Z,6.82
2024-04-12T08:58:21.715Z,8.88
2024-04-12T09:00:50.071Z,4.40
2024-04-12T09:03:37.381Z,4.70
2024-04-12T09:06:05.492Z,4.80
2024-04-12T09:08:37.396Z,6.82
2024-04-12T09:11:08.232Z,3.40
2024-04-12T09:13:37.720Z,10.93
2024-04-12T09:16:09.217Z,4.80
2024-04-12T09:18:56.922Z,3.65
2024-04-12T09:21:30.546Z,3.17
2024-04-12T09:23:58.924Z,4.60
2024-04-12T09:26:27.305Z,3.58
2024-04-12T09:29:10.503Z,4.50
2024-04-12T09:31:57.743Z,4.97
2024-04-12T09:34:38.095Z,4.10
2024-04-12T09:37:26.733Z,3.78
2024-04-12T09:40:01.622Z,3.87
2024-04-12T09:42:30.141Z,3.38
2024-04-12T09:45:01.824Z,2.70
2024-04-12T09:47:29.974Z,3.05
2024-04-12T09:50:18.133Z,3.70
2024-04-12T09:53:05.353Z,2.95
2024-04-12T09:55:53.532Z,2.85
2024-04-12T09:58:42.781Z,3.38
2024-04-12T10:01:30.905Z,3.07
2024-04-12T10:04:18.681Z,3.60
2024-04-12T10:07:07.528Z,3.20
2024-04-12T10:09:56.342Z,3.00
2024-04-12T10:12:44.941Z,3.40
2024-04-12T10:15:32.616Z,3.63
2024-04-12T10:18:35.225Z,4.07
2024-04-12T10:21:26.825Z,3.00
2024-04-12T10:24:14.159Z,3.43
2024-04-12T10:27:01.755Z,3.67
2024-04-12T10:29:48.967Z,4.30
2024-04-12T10:32:36.520Z,3.53
2024-04-12T10:35:24.330Z,3.38
2024-04-12T10:37:52.520Z,3.50
2024-04-12T10:40:22.966Z,2.88
2024-04-12T10:42:57.643Z,3.30
2024-04-12T10:45:27.287Z,3.03
2024-04-12T10:47:56.282Z,2.50
2024-04-12T10:50:24.963Z,2.17
2024-04-12T10:52:52.682Z,2.10
2024-04-12T10:55:20.748Z,2.08
2024-04-12T10:57:49.310Z,2.42
2024-04-12T11:00:18.076Z,2.35
2024-04-12T11:03:02.842Z,3.00
2024-04-12T11:05:36.587Z,2.43
2024-04-12T11:08:16.625Z,2.50
2024-04-12T11:11:00.527Z,2.38
2024-04-12T11:13:36.328Z,2.97
2024-04-12T11:16:23.724Z,2.50
2024-04-12T11:19:12.620Z,2.42
2024-04-12T11:21:39.938Z,2.50
2024-04-12T11:24:27.413Z,2.50
2024-04-12T11:27:14.723Z,2.40
2024-04-12T11:30:02.848Z,2.70
2024-04-12T11:32:32.165Z,2.80
2024-04-12T11:35:03.833Z,2.90
2024-04-12T11:37:31.843Z,2.47
2024-04-12T11:39:59.125Z,2.37
2024-04-12T11:42:27.150Z,2.65
2024-04-12T11:44:55.006Z,2.90
2024-04-12T11:47:25.111Z,2.67
2024-04-12T11:49:59.321Z,2.40
2024-04-12T11:52:27.263Z,2.35
2024-04-12T11:54:56.895Z,1.98
2024-04-12T11:57:28.375Z,2.33
2024-04-12T12:00:00.106Z,1.88
2024-04-12T12:02:29.683Z,2.20
2024-04-12T12:04:58.782Z,2.53
2024-04-12T12:07:29.440Z,2.00
2024-04-12T12:09:56.749Z,1.90
2024-04-12T12:12:24.269Z,2.20
2024-04-12T12:14:53.035Z,1.90
2024-04-12T12:17:21.132Z,2.03
2024-04-12T12:19:51.799Z,2.60
2024-04-12T12:22:22.109Z,2.25
2024-04-12T12:24:49.553Z,1.60
2024-04-12T12:27:17.509Z,2.22
2024-04-12T12:29:51.240Z,1.92
2024-04-12T12:32:20.871Z,2.20
2024-04-12T12:34:48.532Z,2.17
2024-04-12T12:37:17.050Z,2.08
2024-04-12T12:39:44.907Z,2.17
2024-04-12T12:42:14.023Z,2.25
2024-04-12T12:44:41.532Z,1.90
2024-04-12T12:47:11.764Z,2.38
2024-04-12T12:49:48.389Z,2.20
2024-04-12T12:52:16.225Z,2.13
2024-04-12T12:54:44.615Z,1.90
2024-04-12T12:57:15.370Z,2.53
2024-04-12T12:59:47.354Z,1.83
2024-04-12T13:02:16.911Z,1.75
2024-04-12T13:04:50.078Z,2.13
2024-04-12T13:07:21.793Z,2.05
2024-04-12T13:09:55.716Z,1.52
2024-04-12T13:12:31.038Z,1.70
2024-04-12T13:15:00.242Z,1.80
2024-04-12T13:17:27.946Z,1.73
2024-04-12T13:20:00.338Z,1.80
2024-04-12T13:22:31.147Z,1.30
2024-04-12T13:24:58.707Z,1.10
2024-04-12T13:27:30.748Z,2.50
2024-04-12T13:29:58.538Z,1.40
2024-04-12T13:32:25.869Z,1.20
2024-04-12T13:34:56.924Z,1.33
2024-04-12T13:37:26.371Z,1.35
2024-04-12T13:39:53.984Z,1.50
2024-04-12T13:42:24.674Z,1.65
2024-04-12T13:45:12.020Z,1.73
2024-04-12T13:47:59.655Z,1.45
2024-04-12T13:50:46.927Z,1.50
2024-04-12T13:53:14.265Z,1.30
2024-04-12T13:55:43.439Z,1.50
2024-04-12T13:58:13.670Z,1.55
2024-04-12T14:00:42.313Z,1.53
2024-04-12T14:03:23.041Z,1.60
2024-04-12T14:05:54.648Z,1.20
2024-04-12T14:08:22.301Z,1.40
2024-04-12T14:10:49.667Z,1.20
2024-04-12T14:13:21.279Z,1.50
2024-04-12T14:15:49.030Z,1.50
2024-04-12T14:18:16.532Z,1.45
2024-04-12T14:20:44.050Z,1.20
2024-04-12T14:23:11.920Z,1.40
2024-04-12T14:25:39.260Z,1.50
2024-04-12T14:28:06.707Z,1.37
2024-04-12T14:30:34.038Z,1.40
2024-04-12T14:33:04.114Z,1.20
2024-04-12T14:35:31.531Z,1.10
2024-04-12T14:37:59.309Z,1.33
2024-04-12T14:40:30.870Z,1.15
2024-04-12T14:42:59.702Z,1.50
2024-04-12T14:45:27.129Z,1.50
2024-04-12T14:47:59.641Z,1.20
2024-04-12T14:50:36.044Z,1.30
2024-04-12T14:53:04.565Z,1.38
2024-04-12T14:55:32.327Z,1.20
2024-04-12T14:57:59.781Z,1.40
2024-04-12T15:00:27.977Z,1.40
2024-04-12T15:02:56.953Z,1.30
2024-04-12T15:05:44.499Z,1.35
2024-04-12T15:08:35.296Z,1.20
2024-04-12T15:11:24.058Z,1.60
2024-04-12T15:14:11.898Z,1.40
2024-04-12T15:16:59.133Z,1.10
2024-04-12T15:19:46.294Z,1.52
2024-04-12T15:22:33.491Z,1.25
2024-04-12T15:25:20.703Z,1.20
2024-04-12T15:28:07.932Z,1.10
2024-04-12T15:30:55.134Z,1.27
2024-04-12T15:33:42.428Z,1.30
2024-04-12T15:36:29.690Z,1.40
2024-04-12T15:39:17.077Z,1.60
2024-04-12T15:42:04.480Z,1.48
2024-04-12T15:44:51.825Z,1.05
2024-04-12T15:47:19.218Z,1.20
2024-04-12T15:49:49.188Z,1.40
2024-04-12T15:52:20.207Z,1.33
2024-04-12T15:54:53.243Z,1.20
2024-04-12T15:57:40.862Z,1.33
2024-04-12T16:00:28.610Z,1.50
2024-04-12T16:03:15.761Z,1.23
2024-04-12T16:06:03.216Z,1.40
2024-04-12T16:08:50.518Z,1.42
2024-04-12T16:11:17.987Z,1.47
2024-04-12T16:13:45.371Z,1.55
2024-04-12T16:16:13.118Z,1.60
2024-04-12T16:18:43.067Z,1.30
2024-04-12T16:21:10.420Z,1.55
2024-04-12T16:23:37.778Z,1.23
2024-04-12T16:26:05.711Z,1.30
2024-04-12T16:28:34.885Z,1.20
2024-04-12T16:31:04.949Z,1.30
2024-04-12T16:33:34.679Z,1.50
2024-04-12T16:36:02.795Z,1.20
2024-04-12T16:38:30.252Z,1.20
2024-04-12T16:40:57.642Z,1.48
2024-04-12T16:43:25.042Z,1.20
2024-04-12T16:45:52.382Z,1.90
2024-04-12T16:48:19.864Z,1.23
2024-04-12T16:50:49.584Z,1.10
2024-04-12T16:53:17.189Z,1.50
2024-04-12T16:55:46.818Z,1.10
2024-04-12T16:58:14.181Z,1.23
2024-04-12T17:00:43.622Z,1.50
2024-04-12T17:03:14.590Z,1.02
2024-04-12T17:05:41.940Z,1.30
2024-04-12T17:08:09.408Z,5.00
2024-04-12T17:10:36.799Z,4.82
2024-04-12T17:13:04.199Z,2.90
2024-04-12T17:15:31.869Z,3.35
2024-04-12T17:18:01.980Z,3.50
2024-04-12T17:20:29.365Z,2.80
2024-04-12T17:22:56.896Z,2.15
2024-04-12T17:25:24.425Z,1.63
2024-04-12T17:27:53.013Z,1.30
2024-04-12T17:30:21.021Z,1.05
2024-04-12T17:32:51.144Z,1.00
2024-04-12T17:35:21.366Z,0.93
2024-04-12T17:37:48.784Z,1.00
2024-04-12T17:40:16.290Z,2.28
2024-04-12T17:42:43.763Z,8.40
2024-04-12T17:45:12.439Z,4.25
2024-04-12T17:47:40.296Z,2.20
2024-04-12T17:50:07.846Z,2.08
2024-04-12T17:52:35.304Z,1.38
2024-04-12T17:55:03.996Z,1.30
2024-04-12T17:57:32.796Z,1.30
2024-04-12T18:00:02.064Z,1.05
2024-04-12T18:02:29.523Z,1.00
2024-04-12T18:04:58.068Z,1.15
2024-04-12T18:07:25.473Z,1.00
2024-04-12T18:09:53.012Z,1.00
2024-04-12T18:12:20.363Z,1.27
2024-04-12T18:14:47.811Z,1.20
2024-04-12T18:17:15.135Z,1.35
2024-04-12T18:19:42.444Z,1.23
2024-04-12T18:22:09.937Z,1.10
2024-04-12T18:24:37.484Z,1.20
2024-04-12T18:27:04.975Z,1.50
2024-04-12T18:29:32.301Z,1.77
2024-04-12T18:32:01.820Z,1.70
2024-04-12T18:34:30.327Z,1.60
2024-04-12T18:37:17.711Z,1.60
2024-04-12T18:40:04.912Z,1.30
2024-04-12T18:42:52.193Z,1.35
2024-04-12T18:45:20.010Z,2.70
2024-04-12T18:47:48.616Z,1.70
2024-04-12T18:50:18.765Z,1.37
2024-04-12T18:52:47.322Z,1.40
2024-04-12T18:55:14.716Z,1.50
2024-04-12T18:57:42.089Z,1.40
2024-04-12T19:00:09.783Z,1.50
2024-04-12T19:02:38.762Z,1.55
2024-04-12T19:05:07.982Z,1.53
2024-04-12T19:07:35.320Z,1.50
2024-04-12T19:10:05.707Z,1.60
2024-04-12T19:12:36.835Z,1.60
2024-04-12T19:15:04.781Z,1.50
2024-04-12T19:17:32.437Z,1.48
2024-04-12T19:19:59.745Z,1.80
2024-04-12T19:22:28.533Z,1.60
2024-04-12T19:24:55.855Z,1.52
2024-04-12T19:27:23.321Z,2.72
2024-04-12T19:29:52.771Z,3.30
2024-04-12T19:32:20.256Z,3.80
2024-04-12T19:34:47.597Z,3.17
2024-04-12T19:37:14.912Z,2.50
2024-04-12T19:39:42.808Z,2.20
2024-04-12T19:42:10.055Z,2.15
2024-04-12T19:44:38.230Z,1.90
2024-04-12T19:47:06.725Z,1.70
2024-04-12T19:49:36.921Z,1.90
2024-04-12T19:52:04.785Z,2.00
2024-04-12T19:54:32.401Z,2.20
2024-04-12T19:57:00.542Z,2.50
2024-04-12T19:59:30.297Z,2.10
2024-04-12T20:01:59.601Z,2.38
2024-04-12T20:04:27.012Z,3.22
2024-04-12T20:06:54.430Z,3.27
2024-04-12T20:09:22.668Z,2.55
2024-04-12T20:11:50.264Z,2.30
2024-04-12T20:14:17.704Z,2.90
2024-04-12T20:16:47.044Z,2.97
2024-04-12T20:19:14.685Z,2.60
2024-04-12T20:21:42.375Z,2.45
2024-04-12T20:24:13.060Z,3.10
2024-04-12T20:26:42.916Z,2.92
2024-04-12T20:29:20.048Z,2.65
2024-04-12T20:32:03.559Z,3.13
2024-04-12T20:34:53.491Z,3.78
2024-04-12T20:37:21.603Z,3.73
2024-04-12T20:39:49.042Z,3.67
2024-04-12T20:42:17.738Z,3.05
2024-04-12T20:44:45.167Z,3.05
2024-04-12T20:47:13.122Z,2.97
2024-04-12T20:49:42.732Z,3.00
2024-04-12T20:52:10.436Z,4.30
2024-04-12T20:54:37.949Z,4.70
2024-04-12T20:57:05.559Z,5.53
2024-04-12T20:59:33.173Z,5.97
2024-04-12T21:02:00.587Z,6.13
2024-04-12T21:04:28.122Z,5.40
2024-04-12T21:06:58.104Z,4.10
2024-04-12T21:09:25.455Z,4.50
2024-04-12T21:11:53.616Z,4.50
2024-04-12T21:14:21.341Z,4.77
2024-04-12T21:16:48.763Z,4.90
2024-04-12T21:19:17.547Z,4.07
2024-04-12T21:21:44.768Z,4.87
2024-04-12T21:24:12.131Z,4.50
2024-04-12T21:26:39.433Z,3.90
2024-04-12T21:29:06.767Z,3.80
2024-04-12T21:31:34.095Z,3.70
2024-04-12T21:34:01.627Z,3.30
2024-04-12T21:36:31.617Z,2.60
2024-04-12T21:39:00.511Z,2.90
2024-04-12T21:41:27.990Z,2.65
2024-04-12T21:43:56.168Z,2.50
2024-04-12T21:46:24.833Z,2.22
2024-04-12T21:48:52.993Z,2.10
2024-04-12T21:51:21.344Z,2.70
2024-04-12T21:53:48.894Z,2.85
2024-04-12T21:56:19.110Z,3.33
2024-04-12T21:58:46.530Z,2.80
2024-04-12T22:01:17.653Z,2.75
2024-04-12T22:03:45.226Z,3.50
2024-04-12T22:06:12.876Z,3.30
2024-04-12T22:08:42.038Z,4.10
2024-04-12T22:11:09.630Z,3.47
2024-04-12T22:13:37.748Z,3.28
2024-04-12T22:16:06.005Z,3.00
2024-04-12T22:18:34.726Z,2.70
2024-04-12T22:21:05.799Z,2.50
2024-04-12T22:23:34.040Z,2.70
2024-04-12T22:26:01.408Z,2.88
2024-04-12T22:28:28.773Z,2.85
2024-04-12T22:30:56.026Z,2.85
2024-04-12T22:33:23.751Z,2.80
2024-04-12T22:35:50.950Z,3.00
2024-04-12T22:38:18.177Z,3.37
2024-04-12T22:40:45.541Z,3.37
2024-04-12T22:43:14.151Z,3.13
2024-04-12T22:45:44.066Z,2.80
2024-04-12T22:48:11.463Z,3.15
2024-04-12T22:50:40.438Z,2.60
2024-04-12T22:53:08.276Z,2.40
2024-04-12T22:55:37.818Z,2.58
2024-04-12T22:58:06.153Z,2.50
2024-04-12T23:00:34.919Z,2.28
2024-04-12T23:03:03.257Z,2.33
2024-04-12T23:05:30.747Z,2.80
2024-04-12T23:07:57.965Z,2.97
2024-04-12T23:10:25.273Z,2.85
2024-04-12T23:12:52.602Z,3.08
2024-04-12T23:15:22.450Z,2.90
2024-04-12T23:17:50.266Z,3.20
2024-04-12T23:20:17.766Z,3.00
2024-04-12T23:22:45.398Z,2.95
2024-04-12T23:25:12.671Z,2.90
2024-04-12T23:27:39.920Z,3.45
2024-04-12T23:30:07.790Z,2.95
2024-04-12T23:32:35.147Z,3.15
2024-04-12T23:35:02.914Z,3.30
2024-04-12T23:37:30.328Z,2.83
2024-04-12T23:39:57.714Z,3.40
2024-04-12T23:42:24.914Z,3.60
2024-04-12T23:44:52.282Z,3.60
2024-04-12T23:47:19.572Z,3.30
2024-04-12T23:49:46.978Z,2.85
2024-04-12T23:52:14.250Z,3.10
2024-04-12T23:54:41.658Z,3.22
2024-04-12T23:57:09.280Z,3.83
2024-04-12T23:59:36.536Z,3.33
